createdAt,value
2019-03-25T00:01:15.448Z,4.30
2019-03-25T00:03:45.777Z,4.30
2019-03-25T00:06:15.947Z,4.40
2019-03-25T00:08:46.318Z,4.40
2019-03-25T00:11:16.671Z,4.40
2019-03-25T00:13:46.869Z,4.40
2019-03-25T00:16:17.102Z,4.30
2019-03-25T00:18:47.761Z,4.30
2019-03-25T00:21:18.049Z,4.30
2019-03-25T00:23:48.262Z,4.30
2019-03-25T00:26:18.529Z,4.30
2019-03-25T00:28:48.699Z,4.30
2019-03-25T00:31:19.142Z,4.40
2019-03-25T00:33:49.385Z,4.40
2019-03-25T00:36:19.902Z,4.50
2019-03-25T00:38:50.131Z,4.50
2019-03-25T00:41:20.322Z,4.60
2019-03-25T00:43:50.496Z,4.60
2019-03-25T00:46:20.667Z,4.60
2019-03-25T00:48:50.863Z,4.60
2019-03-25T00:51:21.052Z,4.60
2019-03-25T00:53:51.230Z,4.60
2019-03-25T00:56:21.489Z,4.60
2019-03-25T00:58:51.658Z,4.60
2019-03-25T01:01:22.009Z,4.60
2019-03-25T01:03:53.143Z,4.60
2019-03-25T01:06:23.387Z,4.60
2019-03-25T01:08:53.570Z,4.60
2019-03-25T01:11:24.749Z,4.60
2019-03-25T01:13:54.979Z,4.60
2019-03-25T01:16:25.176Z,4.60
2019-03-25T01:18:55.348Z,4.50
2019-03-25T01:21:25.621Z,4.50
2019-03-25T01:23:56.776Z,4.50
2019-03-25T01:26:26.979Z,4.50
2019-03-25T01:28:57.151Z,4.50
2019-03-25T01:31:27.328Z,4.50
2019-03-25T01:33:57.482Z,4.40
2019-03-25T01:36:27.665Z,4.40
2019-03-25T01:38:57.870Z,4.40
2019-03-25T01:41:28.066Z,4.40
2019-03-25T01:43:58.259Z,4.40
2019-03-25T01:46:28.435Z,4.40
2019-03-25T01:48:58.618Z,4.40
2019-03-25T01:51:28.794Z,4.40
2019-03-25T01:53:58.964Z,4.40
2019-03-25T01:56:29.174Z,4.40
2019-03-25T01:58:59.368Z,4.40
2019-03-25T02:01:29.547Z,4.40
2019-03-25T02:03:59.715Z,4.40
2019-03-25T02:06:29.935Z,4.40
2019-03-25T02:09:00.407Z,4.30
2019-03-25T02:11:30.766Z,4.30
2019-03-25T02:14:00.947Z,4.20
2019-03-25T02:16:31.149Z,4.20
2019-03-25T02:19:01.343Z,4.10
2019-03-25T02:21:31.580Z,4.10
2019-03-25T02:24:01.755Z,4.00
2019-03-25T02:26:31.935Z,4.00
2019-03-25T02:29:02.200Z,3.90
2019-03-25T02:31:32.433Z,3.90
2019-03-25T02:34:02.768Z,3.90
2019-03-25T02:36:33.216Z,3.90
2019-03-25T02:39:05.295Z,3.90
2019-03-25T02:41:35.573Z,4.00
2019-03-25T02:44:05.751Z,4.00
2019-03-25T02:46:35.945Z,4.10
2019-03-25T02:49:06.278Z,4.10
2019-03-25T02:51:36.810Z,4.10
2019-03-25T02:54:07.110Z,4.20
2019-03-25T02:56:37.284Z,4.20
2019-03-25T02:59:07.463Z,4.20
2019-03-25T03:01:37.645Z,4.20
2019-03-25T03:04:08.125Z,4.20
2019-03-25T03:06:38.285Z,4.20
2019-03-25T03:09:10.355Z,4.20
2019-03-25T03:11:40.636Z,4.20
2019-03-25T03:14:10.839Z,4.20
2019-03-25T03:16:41.059Z,4.30
2019-03-25T03:19:11.220Z,4.30
2019-03-25T03:21:41.486Z,4.30
2019-03-25T03:24:11.659Z,4.30
2019-03-25T03:26:41.812Z,4.30
2019-03-25T03:29:12.015Z,4.30
2019-03-25T03:31:42.179Z,4.30
2019-03-25T03:34:12.472Z,4.30
2019-03-25T03:36:42.831Z,4.30
2019-03-25T03:39:13.070Z,4.30
2019-03-25T03:41:43.397Z,4.30
2019-03-25T03:44:13.581Z,4.30
2019-03-25T03:46:43.739Z,4.30
2019-03-25T03:49:14.079Z,4.30
2019-03-25T03:51:44.489Z,4.30
2019-03-25T03:54:15.528Z,4.30
2019-03-25T03:56:46.443Z,4.30
2019-03-25T03:59:17.183Z,4.30
2019-03-25T04:01:47.344Z,4.20
2019-03-25T04:04:17.595Z,4.20
2019-03-25T04:06:47.811Z,4.20
2019-03-25T04:09:18.004Z,4.20
2019-03-25T04:11:48.175Z,4.20
2019-03-25T04:14:18.341Z,4.20
2019-03-25T04:16:48.597Z,4.10
2019-03-25T04:19:18.767Z,4.20
2019-03-25T04:21:48.946Z,4.10
2019-03-25T04:24:19.130Z,4.10
2019-03-25T04:26:49.646Z,4.10
2019-03-25T04:29:19.855Z,4.10
2019-03-25T04:31:50.014Z,4.10
2019-03-25T04:34:20.193Z,4.10
2019-03-25T04:36:50.368Z,4.10
2019-03-25T04:39:20.628Z,4.10
2019-03-25T04:41:50.991Z,4.10
2019-03-25T04:44:21.160Z,4.10
2019-03-25T04:46:51.326Z,4.10
2019-03-25T04:49:21.503Z,4.10
2019-03-25T04:51:51.762Z,4.10
2019-03-25T04:54:22.911Z,4.10
2019-03-25T04:56:53.096Z,4.10
2019-03-25T04:59:23.371Z,4.10
2019-03-25T05:01:53.766Z,4.10
2019-03-25T05:04:24.031Z,4.10
2019-03-25T05:06:54.263Z,4.00
2019-03-25T05:09:24.484Z,4.00
2019-03-25T05:11:54.723Z,4.00
2019-03-25T05:14:24.907Z,4.00
2019-03-25T05:16:55.223Z,3.90
2019-03-25T05:19:25.457Z,3.90
2019-03-25T05:21:55.704Z,3.90
2019-03-25T05:24:26.080Z,3.90
2019-03-25T05:26:56.265Z,3.80
2019-03-25T05:29:26.445Z,3.80
2019-03-25T05:31:56.698Z,3.80
2019-03-25T05:34:28.130Z,3.80
2019-03-25T05:36:58.756Z,3.80
2019-03-25T05:39:28.991Z,3.80
2019-03-25T05:41:59.286Z,3.80
2019-03-25T05:44:29.519Z,3.80
2019-03-25T05:46:59.700Z,3.80
2019-03-25T05:49:30.939Z,3.80
2019-03-25T05:52:01.179Z,3.80
2019-03-25T05:54:31.347Z,3.80
2019-03-25T05:57:02.693Z,3.80
2019-03-25T05:59:33.296Z,3.80
2019-03-25T06:02:03.582Z,3.80
2019-03-25T06:04:33.779Z,3.80
2019-03-25T06:07:04.028Z,3.90
2019-03-25T06:09:34.175Z,3.90
2019-03-25T06:12:05.393Z,4.00
2019-03-25T06:14:35.798Z,4.00
2019-03-25T06:17:05.971Z,4.00
2019-03-25T06:19:36.179Z,4.00
2019-03-25T06:22:06.382Z,4.00
2019-03-25T06:24:36.548Z,4.10
2019-03-25T06:27:14.006Z,4.10
2019-03-25T06:29:38.712Z,4.10
2019-03-25T06:32:08.898Z,4.20
2019-03-25T06:34:39.075Z,4.30
2019-03-25T06:37:09.259Z,4.30
2019-03-25T06:39:39.510Z,4.30
2019-03-25T06:42:09.732Z,4.40
2019-03-25T06:44:39.935Z,4.50
2019-03-25T06:47:10.148Z,4.50
2019-03-25T06:49:40.350Z,4.60
2019-03-25T06:52:10.535Z,4.60
2019-03-25T06:54:40.706Z,4.70
2019-03-25T06:57:10.921Z,4.70
2019-03-25T06:59:41.104Z,4.70
2019-03-25T07:02:11.309Z,4.80
2019-03-25T07:04:41.504Z,4.90
2019-03-25T07:07:12.767Z,4.90
2019-03-25T07:09:42.959Z,4.80
2019-03-25T07:12:13.276Z,4.80
2019-03-25T07:14:43.601Z,4.80
2019-03-25T07:17:13.791Z,4.80
2019-03-25T07:19:44.016Z,4.80
2019-03-25T07:22:15.247Z,4.80
2019-03-25T07:24:45.555Z,4.90
2019-03-25T07:27:15.946Z,4.90
2019-03-25T07:29:46.099Z,5.00
2019-03-25T07:32:17.437Z,5.10
2019-03-25T07:34:47.698Z,5.20
2019-03-25T07:37:18.948Z,5.20
2019-03-25T07:39:49.115Z,5.30
2019-03-25T07:42:19.341Z,5.30
2019-03-25T07:44:49.563Z,5.30
2019-03-25T07:47:19.805Z,5.30
2019-03-25T07:49:50.322Z,5.40
2019-03-25T07:52:20.499Z,5.30
2019-03-25T07:54:50.705Z,5.40
2019-03-25T07:57:21.096Z,5.40
2019-03-25T07:59:51.380Z,5.50
2019-03-25T08:02:21.958Z,5.50
2019-03-25T08:04:52.324Z,5.60
2019-03-25T08:07:22.609Z,5.60
2019-03-25T08:09:52.853Z,5.70
2019-03-25T08:12:23.054Z,5.70
2019-03-25T08:14:53.234Z,5.80
2019-03-25T08:17:23.671Z,5.80
2019-03-25T08:19:53.877Z,5.80
2019-03-25T08:22:24.444Z,5.90
2019-03-25T08:24:54.668Z,5.90
2019-03-25T08:27:25.000Z,5.90
2019-03-25T08:29:55.284Z,5.90
2019-03-25T08:32:25.503Z,5.90
2019-03-25T08:34:55.670Z,5.90
2019-03-25T08:37:25.828Z,6.00
2019-03-25T08:39:56.027Z,6.00
2019-03-25T08:42:26.207Z,6.00
2019-03-25T08:44:56.415Z,6.00
2019-03-25T08:47:26.598Z,6.00
2019-03-25T08:49:56.767Z,6.00
2019-03-25T08:52:26.975Z,6.00
2019-03-25T08:54:57.140Z,6.10
2019-03-25T08:57:27.363Z,6.10
2019-03-25T08:59:57.898Z,6.20
2019-03-25T09:02:28.195Z,6.20
2019-03-25T09:04:59.427Z,6.30
2019-03-25T09:07:29.604Z,6.30
2019-03-25T09:09:59.788Z,6.30
2019-03-25T09:12:29.950Z,6.40
2019-03-25T09:15:00.133Z,6.50
2019-03-25T09:17:30.467Z,6.50
2019-03-25T09:20:00.647Z,6.60
2019-03-25T09:22:30.887Z,6.70
2019-03-25T09:25:01.241Z,6.70
2019-03-25T09:27:31.392Z,6.80
2019-03-25T09:30:03.490Z,6.90
2019-03-25T09:32:33.691Z,6.90
2019-03-25T09:35:03.967Z,7.00
2019-03-25T09:37:34.232Z,7.00
2019-03-25T09:40:06.319Z,7.10
2019-03-25T09:42:36.486Z,7.20
2019-03-25T09:45:07.800Z,7.20
2019-03-25T09:47:38.204Z,7.30
2019-03-25T09:50:09.957Z,7.30
2019-03-25T09:52:40.917Z,7.40
2019-03-25T09:55:11.449Z,7.50
2019-03-25T09:57:41.647Z,7.50
2019-03-25T10:00:12.159Z,7.60
2019-03-25T10:02:42.323Z,7.60
2019-03-25T10:05:12.577Z,7.70
2019-03-25T10:07:42.755Z,7.70
2019-03-25T10:10:13.187Z,7.80
2019-03-25T10:12:43.447Z,7.90
2019-03-25T10:15:13.776Z,7.90
2019-03-25T10:17:43.974Z,8.00
2019-03-25T10:20:14.650Z,8.00
2019-03-25T10:22:44.824Z,8.10
2019-03-25T10:25:15.412Z,8.20
2019-03-25T10:27:45.611Z,8.20
2019-03-25T10:30:16.618Z,8.20
2019-03-25T10:32:46.883Z,8.30
2019-03-25T10:35:17.225Z,8.30
2019-03-25T10:37:47.477Z,8.30
2019-03-25T10:40:19.879Z,8.30
2019-03-25T10:42:50.085Z,8.40
2019-03-25T10:45:20.255Z,8.40
2019-03-25T10:47:50.443Z,8.40
2019-03-25T10:50:20.612Z,8.40
2019-03-25T10:52:50.803Z,8.50
2019-03-25T10:55:21.029Z,8.50
2019-03-25T10:57:51.333Z,8.60
2019-03-25T11:00:21.907Z,8.60
2019-03-25T11:02:52.086Z,8.70
2019-03-25T11:05:22.249Z,8.80
2019-03-25T11:07:52.531Z,8.80
2019-03-25T11:10:22.790Z,8.90
2019-03-25T11:12:53.039Z,8.90
2019-03-25T11:15:23.384Z,9.00
2019-03-25T11:17:53.669Z,9.00
2019-03-25T11:20:24.927Z,9.00
2019-03-25T11:22:55.127Z,9.10
2019-03-25T11:25:25.436Z,9.10
2019-03-25T11:27:55.631Z,9.10
2019-03-25T11:31:00.122Z,9.20
2019-03-25T11:33:30.660Z,9.10
2019-03-25T11:36:02.722Z,9.10
2019-03-25T11:38:32.883Z,9.10
2019-03-25T11:41:03.074Z,9.20
2019-03-25T11:43:33.266Z,9.30
2019-03-25T11:46:03.515Z,9.30
2019-03-25T11:48:33.767Z,9.50
2019-03-25T11:51:05.552Z,9.60
2019-03-25T11:53:35.731Z,9.60
2019-03-25T11:56:06.210Z,9.60
2019-03-25T11:58:36.376Z,9.70
2019-03-25T12:01:06.697Z,9.80
2019-03-25T12:03:37.246Z,9.80
2019-03-25T12:06:07.499Z,9.80
2019-03-25T12:08:37.703Z,9.80
2019-03-25T12:11:07.942Z,9.90
2019-03-25T12:13:38.118Z,9.90
2019-03-25T12:16:08.429Z,9.90
2019-03-25T12:18:38.599Z,9.90
2019-03-25T12:21:08.795Z,10.00
2019-03-25T12:23:39.012Z,10.00
2019-03-25T12:26:09.307Z,10.10
2019-03-25T12:28:39.489Z,10.10
2019-03-25T12:31:09.739Z,10.00
2019-03-25T12:33:39.928Z,10.00
2019-03-25T12:36:10.176Z,10.00
2019-03-25T12:38:40.352Z,9.90
2019-03-25T12:41:10.519Z,9.90
2019-03-25T12:43:40.867Z,9.90
2019-03-25T12:46:11.107Z,9.90
2019-03-25T12:48:41.317Z,9.70
2019-03-25T12:51:11.498Z,9.70
2019-03-25T12:53:41.666Z,9.70
2019-03-25T12:56:11.843Z,9.70
2019-03-25T12:58:42.033Z,9.80
2019-03-25T13:01:12.278Z,9.80
2019-03-25T13:03:42.623Z,9.70
2019-03-25T13:06:12.799Z,9.70
2019-03-25T13:08:42.974Z,9.60
2019-03-25T13:11:13.158Z,9.50
2019-03-25T13:13:43.330Z,9.50
2019-03-25T13:16:13.507Z,9.50
2019-03-25T13:18:43.743Z,9.50
2019-03-25T13:21:13.956Z,9.60
2019-03-25T13:23:44.127Z,9.60
2019-03-25T13:26:14.330Z,9.60
2019-03-25T13:28:44.511Z,9.60
2019-03-25T13:31:14.696Z,9.60
2019-03-25T13:33:44.964Z,9.60
2019-03-25T13:36:16.235Z,9.60
2019-03-25T13:38:46.407Z,9.60
2019-03-25T13:41:16.607Z,9.60
2019-03-25T13:43:46.775Z,9.70
2019-03-25T13:46:16.967Z,9.70
2019-03-25T13:48:47.144Z,9.60
2019-03-25T13:51:17.332Z,9.60
2019-03-25T13:53:48.479Z,9.60
2019-03-25T13:56:18.727Z,9.60
2019-03-25T13:58:48.891Z,9.40
2019-03-25T14:01:19.075Z,9.30
2019-03-25T14:03:49.235Z,9.20
2019-03-25T14:06:19.652Z,9.10
2019-03-25T14:08:49.819Z,9.00
2019-03-25T14:11:20.037Z,9.00
2019-03-25T14:13:50.201Z,8.90
2019-03-25T14:16:20.504Z,8.80
2019-03-25T14:18:50.679Z,8.80
2019-03-25T14:21:20.912Z,8.70
2019-03-25T14:23:52.195Z,8.70
2019-03-25T14:26:22.423Z,8.70
2019-03-25T14:28:52.680Z,8.70
2019-03-25T14:31:22.887Z,8.60
2019-03-25T14:33:53.082Z,8.60
2019-03-25T14:36:23.343Z,8.50
2019-03-25T14:38:53.528Z,8.40
2019-03-25T14:41:24.675Z,8.30
2019-03-25T14:43:54.847Z,8.30
2019-03-25T14:46:25.011Z,8.20
2019-03-25T14:48:55.228Z,8.10
2019-03-25T14:51:25.483Z,8.10
2019-03-25T14:53:55.656Z,8.10
2019-03-25T14:56:25.811Z,8.00
2019-03-25T14:58:56.023Z,8.00
2019-03-25T15:01:26.211Z,7.90
2019-03-25T15:03:56.456Z,8.00
2019-03-25T15:06:26.691Z,8.00
2019-03-25T15:08:56.932Z,8.00
2019-03-25T15:11:27.099Z,7.90
2019-03-25T15:13:57.274Z,7.90
2019-03-25T15:16:27.451Z,7.80
2019-03-25T15:18:57.610Z,7.80
2019-03-25T15:21:27.771Z,7.80
2019-03-25T15:23:57.990Z,7.80
2019-03-25T15:26:28.159Z,7.80
2019-03-25T15:28:58.339Z,7.70
2019-03-25T15:31:28.599Z,7.70
2019-03-25T15:33:58.793Z,7.70
2019-03-25T15:36:29.029Z,7.60
2019-03-25T15:38:59.211Z,7.60
2019-03-25T15:41:29.371Z,7.60
2019-03-25T15:43:59.582Z,7.50
2019-03-25T15:46:29.771Z,7.50
2019-03-25T15:49:00.926Z,7.40
2019-03-25T15:51:31.097Z,7.40
2019-03-25T15:54:01.349Z,7.40
2019-03-25T15:56:31.555Z,7.30
2019-03-25T15:59:02.969Z,7.30
2019-03-25T16:01:34.250Z,7.20
2019-03-25T16:04:05.388Z,7.20
2019-03-25T16:06:35.632Z,7.20
2019-03-25T16:09:07.797Z,7.20
2019-03-25T16:11:38.124Z,7.20
2019-03-25T16:14:08.467Z,7.10
2019-03-25T16:16:38.679Z,7.10
2019-03-25T16:19:12.006Z,7.10
2019-03-25T16:21:42.268Z,7.00
2019-03-25T16:24:12.605Z,7.00
2019-03-25T16:26:43.743Z,7.00
2019-03-25T16:29:14.111Z,7.00
2019-03-25T16:31:44.308Z,7.00
2019-03-25T16:34:14.488Z,7.00
2019-03-25T16:36:45.631Z,7.00
2019-03-25T16:39:15.949Z,7.00
2019-03-25T16:41:46.179Z,7.00
2019-03-25T16:44:16.349Z,6.90
2019-03-25T16:46:46.523Z,6.90
2019-03-25T16:49:16.779Z,6.90
2019-03-25T16:51:47.009Z,6.90
2019-03-25T16:54:17.360Z,6.80
2019-03-25T16:56:47.544Z,6.80
2019-03-25T16:59:17.903Z,6.80
2019-03-25T17:01:48.343Z,6.80
2019-03-25T17:04:18.683Z,6.70
2019-03-25T17:06:49.034Z,6.70
2019-03-25T17:09:19.308Z,6.70
2019-03-25T17:11:49.600Z,6.60
2019-03-25T17:14:20.002Z,6.60
2019-03-25T17:16:50.589Z,6.60
2019-03-25T17:19:20.846Z,6.60
2019-03-25T17:21:57.985Z,6.50
2019-03-25T17:24:23.075Z,6.40
2019-03-25T17:26:53.309Z,6.40
2019-03-25T17:29:23.504Z,6.40
2019-03-25T17:31:53.751Z,6.30
2019-03-25T17:34:23.980Z,6.30
2019-03-25T17:36:54.201Z,6.20
2019-03-25T17:39:24.371Z,6.20
2019-03-25T17:41:54.706Z,6.20
2019-03-25T17:44:24.923Z,6.10
2019-03-25T17:46:56.112Z,6.10
2019-03-25T17:49:26.369Z,6.10
2019-03-25T17:51:56.871Z,6.10
2019-03-25T17:54:27.311Z,6.10
2019-03-25T17:56:57.502Z,6.00
2019-03-25T17:59:27.715Z,6.00
2019-03-25T18:01:58.169Z,6.00
2019-03-25T18:04:30.474Z,6.00
2019-03-25T18:07:00.779Z,6.00
2019-03-25T18:09:31.053Z,5.90
2019-03-25T18:12:01.377Z,5.90
2019-03-25T18:14:31.734Z,5.90
2019-03-25T18:17:01.964Z,5.90
2019-03-25T18:19:32.339Z,5.90
2019-03-25T18:22:02.657Z,5.80
2019-03-25T18:24:32.993Z,5.80
2019-03-25T18:27:03.281Z,5.80
2019-03-25T18:29:33.612Z,5.80
2019-03-25T18:32:04.039Z,5.80
2019-03-25T18:34:34.226Z,5.80
2019-03-25T18:37:05.385Z,5.80
2019-03-25T18:39:35.603Z,5.80
2019-03-25T18:42:05.929Z,5.80
2019-03-25T18:44:36.228Z,5.70
2019-03-25T18:47:06.532Z,5.70
2019-03-25T18:49:36.895Z,5.70
2019-03-25T18:52:07.260Z,5.70
2019-03-25T18:54:37.787Z,5.70
2019-03-25T18:57:08.072Z,5.70
2019-03-25T18:59:38.340Z,5.70
2019-03-25T19:02:08.743Z,5.70
2019-03-25T19:04:39.011Z,5.60
2019-03-25T19:07:09.336Z,5.60
2019-03-25T19:09:39.784Z,5.60
2019-03-25T19:12:10.335Z,5.60
2019-03-25T19:14:40.844Z,5.60
2019-03-25T19:17:11.677Z,5.60
2019-03-25T19:19:42.294Z,5.60
2019-03-25T19:22:13.046Z,5.50
2019-03-25T19:24:43.602Z,5.50
2019-03-25T19:27:14.036Z,5.50
2019-03-25T19:29:44.484Z,5.50
2019-03-25T19:32:14.771Z,5.50
2019-03-25T19:34:45.056Z,5.40
2019-03-25T19:37:15.318Z,5.40
2019-03-25T19:39:45.767Z,5.40
2019-03-25T19:42:16.064Z,5.40
2019-03-25T19:44:46.665Z,5.30
2019-03-25T19:47:16.832Z,5.30
2019-03-25T19:49:47.033Z,5.30
2019-03-25T19:52:17.255Z,5.30
2019-03-25T19:54:48.532Z,5.30
2019-03-25T19:57:18.914Z,5.20
2019-03-25T19:59:49.249Z,5.20
2019-03-25T20:02:19.817Z,5.20
2019-03-25T20:04:50.128Z,5.20
2019-03-25T20:07:20.565Z,5.20
2019-03-25T20:09:51.018Z,5.10
2019-03-25T20:12:21.265Z,5.10
2019-03-25T20:14:51.802Z,5.10
2019-03-25T20:17:22.049Z,5.00
2019-03-25T20:19:52.391Z,5.00
2019-03-25T20:22:22.797Z,5.00
2019-03-25T20:24:53.207Z,4.90
2019-03-25T20:27:23.603Z,4.90
2019-03-25T20:29:53.983Z,4.90
2019-03-25T20:32:31.551Z,4.90
2019-03-25T20:34:56.129Z,4.90
2019-03-25T20:37:26.586Z,4.90
2019-03-25T20:39:56.924Z,4.90
2019-03-25T20:42:27.175Z,4.80
2019-03-25T20:44:57.499Z,4.80
2019-03-25T20:47:27.753Z,4.80
2019-03-25T20:49:58.080Z,4.80
2019-03-25T20:52:28.314Z,4.70
2019-03-25T20:54:58.621Z,4.70
2019-03-25T20:57:28.893Z,4.70
2019-03-25T20:59:59.175Z,4.70
2019-03-25T21:02:29.378Z,4.70
2019-03-25T21:04:59.844Z,4.70
2019-03-25T21:07:30.150Z,4.70
2019-03-25T21:10:00.554Z,4.70
2019-03-25T21:12:30.963Z,4.70
2019-03-25T21:15:01.219Z,4.70
2019-03-25T21:17:31.435Z,4.70
2019-03-25T21:20:01.668Z,4.70
2019-03-25T21:22:32.254Z,4.70
2019-03-25T21:25:02.521Z,4.80
2019-03-25T21:27:32.777Z,4.80
2019-03-25T21:30:03.083Z,4.80
2019-03-25T21:32:33.332Z,4.80
2019-03-25T21:35:03.788Z,4.80
2019-03-25T21:37:34.120Z,4.80
2019-03-25T21:40:06.078Z,4.90
2019-03-25T21:42:36.384Z,4.90
2019-03-25T21:45:06.843Z,4.90
2019-03-25T21:47:37.067Z,5.00
2019-03-25T21:50:07.871Z,5.00
2019-03-25T21:52:38.041Z,5.10
2019-03-25T21:55:08.608Z,5.10
2019-03-25T21:57:38.892Z,5.10
2019-03-25T22:00:09.902Z,5.10
2019-03-25T22:02:40.200Z,5.10
2019-03-25T22:05:10.520Z,5.10
2019-03-25T22:07:40.702Z,5.10
2019-03-25T22:10:12.466Z,5.10
2019-03-25T22:12:42.645Z,5.10
2019-03-25T22:15:13.888Z,5.00
2019-03-25T22:17:44.075Z,5.00
2019-03-25T22:20:14.588Z,5.00
2019-03-25T22:22:44.764Z,5.00
2019-03-25T22:25:15.026Z,5.00
2019-03-25T22:27:45.223Z,5.00
2019-03-25T22:30:15.623Z,5.00
2019-03-25T22:32:45.814Z,4.90
2019-03-25T22:35:15.996Z,5.00
2019-03-25T22:37:46.189Z,4.90
2019-03-25T22:40:16.516Z,4.90
2019-03-25T22:42:46.699Z,5.00
2019-03-25T22:45:22.112Z,4.90
2019-03-25T22:47:52.283Z,4.90
2019-03-25T22:50:31.748Z,4.90
2019-03-25T22:53:01.984Z,4.90
2019-03-25T22:55:32.218Z,4.90
2019-03-25T22:58:02.475Z,4.90
2019-03-25T23:00:45.339Z,4.90
2019-03-25T23:03:16.130Z,4.90
2019-03-25T23:05:46.446Z,4.90
2019-03-25T23:08:16.709Z,4.90
2019-03-25T23:10:47.050Z,4.90
2019-03-25T23:13:18.355Z,4.90
2019-03-25T23:15:48.532Z,4.80
2019-03-25T23:18:18.748Z,4.80
2019-03-25T23:20:48.920Z,4.80
2019-03-25T23:23:19.134Z,4.80
2019-03-25T23:25:49.867Z,4.80
2019-03-25T23:28:20.082Z,4.80
2019-03-25T23:30:50.248Z,4.80
2019-03-25T23:33:20.426Z,4.70
2019-03-25T23:35:50.602Z,4.70
2019-03-25T23:38:20.796Z,4.70
2019-03-25T23:40:50.976Z,4.70
2019-03-25T23:43:21.255Z,4.70
2019-03-25T23:45:52.529Z,4.60
2019-03-25T23:48:22.707Z,4.60
2019-03-25T23:50:52.891Z,4.60
2019-03-25T23:53:23.082Z,4.60
2019-03-25T23:55:53.262Z,4.60
2019-03-25T23:58:23.456Z,4.50
